Time,TemperatureF,DewpointF,PressureIn,WindDirection,WindDirectionDegrees,WindSpeedMPH,WindSpeedGustMPH,Humidity,HourlyPrecipIn,Conditions,Clouds,dailyrainin,SoftwareType,DateUTC
2013-08-31 00:00:00,68.7,59.7,29.66,East,90,0.0,-999.0,73,-99.99,,,0.00,Acu-Link.com,2013-08-31 07:00:00,
2013-08-31 00:15:00,68.2,59.6,29.68,East,90,0.0,-999.0,74,-99.99,,,0.00,Acu-Link.com,2013-08-31 07:15:00,
2013-08-31 00:30:00,67.6,59.4,29.66,East,90,0.0,-999.0,75,-99.99,,,0.00,Acu-Link.com,2013-08-31 07:30:00,
2013-08-31 00:45:00,66.7,59.3,29.66,East,90,0.0,-999.0,77,-99.99,,,0.00,Acu-Link.com,2013-08-31 07:45:00,
2013-08-31 01:00:00,66.6,59.2,29.66,East,90,1.7,-999.0,77,-99.99,,,0.00,Acu-Link.com,2013-08-31 08:00:00,
2013-08-31 01:15:00,66.6,59.2,29.66,East,90,0.0,-999.0,77,-99.99,,,0.00,Acu-Link.com,2013-08-31 08:15:00,
2013-08-31 01:30:00,66.4,59.0,29.67,East,90,0.0,-999.0,77,-99.99,,,0.00,Acu-Link.com,2013-08-31 08:30:00,
2013-08-31 01:46:00,66.2,59.1,29.66,East,90,0.0,-999.0,78,-99.99,,,0.00,Acu-Link.com,2013-08-31 08:46:00,
2013-08-31 02:01:00,64.9,58.6,29.66,East,90,0.0,-999.0,80,-99.99,,,0.00,Acu-Link.com,2013-08-31 09:01:00,
2013-08-31 02:16:00,63.9,58.3,29.65,East,90,0.0,-999.0,82,-99.99,,,0.00,Acu-Link.com,2013-08-31 09:16:00,
2013-08-31 02:31:00,61.9,57.7,29.64,East,90,0.0,-999.0,86,-99.99,,,0.00,Acu-Link.com,2013-08-31 09:31:00,
2013-08-31 02:46:00,61.0,57.4,29.65,East,90,0.0,-999.0,88,-99.99,,,0.00,Acu-Link.com,2013-08-31 09:46:00,
2013-08-31 03:01:00,60.1,57.5,29.64,East,90,0.0,-999.0,91,-99.99,,,0.00,Acu-Link.com,2013-08-31 10:01:00,
2013-08-31 03:16:00,59.5,57.2,29.64,East,90,0.0,-999.0,92,-99.99,,,0.00,Acu-Link.com,2013-08-31 10:16:00,
2013-08-31 03:31:00,59.4,57.4,29.63,East,90,0.0,-999.0,93,-99.99,,,0.00,Acu-Link.com,2013-08-31 10:31:00,
2013-08-31 03:47:00,58.8,57.4,29.64,East,90,0.0,-999.0,95,-99.99,,,0.00,Acu-Link.com,2013-08-31 10:47:00,
2013-08-31 04:02:00,58.5,57.4,29.64,East,90,0.0,-999.0,96,-99.99,,,0.00,Acu-Link.com,2013-08-31 11:02:00,
2013-08-31 04:17:00,58.1,57.5,29.63,East,90,0.0,-999.0,98,-99.99,,,0.00,Acu-Link.com,2013-08-31 11:17:00,
2013-08-31 04:32:00,57.9,57.3,29.63,East,90,0.0,-999.0,98,-99.99,,,0.00,Acu-Link.com,2013-08-31 11:32:00,
2013-08-31 04:47:00,57.7,57.1,29.63,East,90,0.0,-999.0,98,-99.99,,,0.00,Acu-Link.com,2013-08-31 11:47:00,
2013-08-31 05:02:00,57.4,56.8,29.63,East,90,0.0,-999.0,98,-99.99,,,0.00,Acu-Link.com,2013-08-31 12:02:00,
2013-08-31 05:17:00,57.0,56.4,29.63,East,90,0.0,-999.0,98,-99.99,,,0.00,Acu-Link.com,2013-08-31 12:17:00,
2013-08-31 05:33:00,56.7,56.1,29.64,East,90,0.0,-999.0,98,-99.99,,,0.00,Acu-Link.com,2013-08-31 12:33:00,
2013-08-31 05:48:00,56.5,55.9,29.64,East,90,0.0,-999.0,98,-99.99,,,0.00,Acu-Link.com,2013-08-31 12:48:00,
2013-08-31 06:03:00,56.5,55.9,29.63,East,90,0.0,-999.0,98,-99.99,,,0.00,Acu-Link.com,2013-08-31 13:03:00,
2013-08-31 06:18:00,56.1,55.5,29.64,East,90,0.0,-999.0,98,-99.99,,,0.00,Acu-Link.com,2013-08-31 13:18:00,
2013-08-31 06:33:00,55.9,55.3,29.64,East,90,0.0,-999.0,98,-99.99,,,0.00,Acu-Link.com,2013-08-31 13:33:00,
2013-08-31 06:48:00,55.8,55.2,29.63,East,90,0.0,-999.0,98,-99.99,,,0.00,Acu-Link.com,2013-08-31 13:48:00,
2013-08-31 07:03:00,55.6,55.0,29.63,East,90,0.0,-999.0,98,-99.99,,,0.00,Acu-Link.com,2013-08-31 14:03:00,
2013-08-31 07:18:00,55.8,55.2,29.64,East,90,0.0,-999.0,98,-99.99,,,0.00,Acu-Link.com,2013-08-31 14:18:00,
2013-08-31 07:33:00,56.3,55.7,29.64,East,90,0.0,-999.0,98,-99.99,,,0.00,Acu-Link.com,2013-08-31 14:33:00,
2013-08-31 07:49:00,57.9,57.3,29.64,East,90,0.0,-999.0,98,-99.99,,,0.00,Acu-Link.com,2013-08-31 14:49:00,
2013-08-31 08:04:00,59.9,59.3,29.63,East,90,0.0,-999.0,98,-99.99,,,0.00,Acu-Link.com,2013-08-31 15:04:00,
2013-08-31 08:19:00,60.6,59.2,29.63,East,90,0.0,-999.0,95,-99.99,,,0.00,Acu-Link.com,2013-08-31 15:19:00,
2013-08-31 08:34:00,62.6,59.6,29.63,East,90,0.0,-999.0,90,-99.99,,,0.00,Acu-Link.com,2013-08-31 15:34:00,
2013-08-31 08:49:00,64.0,59.4,29.62,East,90,0.0,-999.0,85,-99.99,,,0.00,Acu-Link.com,2013-08-31 15:49:00,
2013-08-31 09:04:00,66.2,60.2,29.63,East,90,1.7,-999.0,81,-99.99,,,0.00,Acu-Link.com,2013-08-31 16:04:00,
2013-08-31 09:19:00,68.2,60.7,29.62,East,90,0.0,-999.0,77,-99.99,,,0.00,Acu-Link.com,2013-08-31 16:19:00,
2013-08-31 09:34:00,70.3,61.2,29.62,East,90,0.0,-999.0,73,-99.99,,,0.00,Acu-Link.com,2013-08-31 16:34:00,
2013-08-31 09:49:00,71.4,61.9,29.61,East,90,0.0,-999.0,72,-99.99,,,0.00,Acu-Link.com,2013-08-31 16:49:00,
2013-08-31 10:05:00,73.0,61.8,29.61,East,90,0.0,-999.0,68,-99.99,,,0.00,Acu-Link.com,2013-08-31 17:05:00,
2013-08-31 10:20:00,73.8,62.1,29.61,East,90,0.0,-999.0,67,-99.99,,,0.00,Acu-Link.com,2013-08-31 17:20:00,
2013-08-31 10:35:00,75.4,62.4,29.60,East,90,2.7,-999.0,64,-99.99,,,0.00,Acu-Link.com,2013-08-31 17:35:00,
2013-08-31 10:50:00,77.4,62.9,29.59,East,90,2.2,-999.0,61,-99.99,,,0.00,Acu-Link.com,2013-08-31 17:50:00,
2013-08-31 11:05:00,77.5,63.0,29.58,East,90,2.2,-999.0,61,-99.99,,,0.00,Acu-Link.com,2013-08-31 18:05:00,
2013-08-31 11:20:00,79.5,63.9,29.57,East,90,2.2,-999.0,59,-99.99,,,0.00,Acu-Link.com,2013-08-31 18:20:00,
2013-08-31 11:35:00,82.0,64.2,29.57,ESE,112,3.7,-999.0,55,-99.99,,,0.00,Acu-Link.com,2013-08-31 18:35:00,
2013-08-31 11:50:00,82.6,64.2,29.56,SW,225,2.2,-999.0,54,-99.99,,,0.00,Acu-Link.com,2013-08-31 18:50:00,
2013-08-31 12:05:00,83.8,64.3,29.56,ESE,112,1.7,-999.0,52,-99.99,,,0.00,Acu-Link.com,2013-08-31 19:05:00,
2013-08-31 12:21:00,85.3,63.9,29.55,SSW,202,2.7,-999.0,49,-99.99,,,0.00,Acu-Link.com,2013-08-31 19:21:00,
2013-08-31 12:36:00,86.5,64.4,29.55,SSE,157,2.2,-999.0,48,-99.99,,,0.00,Acu-Link.com,2013-08-31 19:36:00,
2013-08-31 12:51:00,88.0,65.2,29.53,SSW,202,1.7,-999.0,47,-99.99,,,0.00,Acu-Link.com,2013-08-31 19:51:00,
2013-08-31 13:06:00,89.1,65.0,29.53,South,180,3.2,-999.0,45,-99.99,,,0.00,Acu-Link.com,2013-08-31 20:06:00,
2013-08-31 13:21:00,90.0,65.1,29.52,South,180,2.2,-999.0,44,-99.99,,,0.00,Acu-Link.com,2013-08-31 20:21:00,
2013-08-31 13:36:00,91.0,65.4,29.52,South,180,2.7,-999.0,43,-99.99,,,0.00,Acu-Link.com,2013-08-31 20:36:00,
2013-08-31 13:52:00,92.3,64.4,29.51,SSE,157,2.7,-999.0,40,-99.99,,,0.00,Acu-Link.com,2013-08-31 20:52:00,
2013-08-31 14:07:00,92.8,64.9,29.49,South,180,3.7,-999.0,40,-99.99,,,0.00,Acu-Link.com,2013-08-31 21:07:00,
2013-08-31 14:22:00,93.0,64.3,29.49,SSE,157,1.7,-999.0,39,-99.99,,,0.00,Acu-Link.com,2013-08-31 21:22:00,
2013-08-31 14:37:00,93.6,62.6,29.48,SSE,157,3.2,-999.0,36,-99.99,,,0.00,Acu-Link.com,2013-08-31 21:37:00,
2013-08-31 14:52:00,93.2,62.2,29.47,South,180,2.7,-999.0,36,-99.99,,,0.00,Acu-Link.com,2013-08-31 21:52:00,
2013-08-31 15:07:00,94.5,60.0,29.48,SSW,202,3.7,-999.0,32,-99.99,,,0.00,Acu-Link.com,2013-08-31 22:07:00,
2013-08-31 15:22:00,94.8,60.3,29.47,SSW,202,4.2,-999.0,32,-99.99,,,0.00,Acu-Link.com,2013-08-31 22:22:00,
2013-08-31 15:37:00,95.2,59.7,29.46,South,180,3.2,-999.0,31,-99.99,,,0.00,Acu-Link.com,2013-08-31 22:37:00,
2013-08-31 15:52:00,93.6,59.3,29.46,SSW,202,3.2,-999.0,32,-99.99,,,0.00,Acu-Link.com,2013-08-31 22:52:00,
2013-08-31 16:07:00,92.8,60.3,29.45,SSW,202,4.7,-999.0,34,-99.99,,,0.00,Acu-Link.com,2013-08-31 23:07:00,
2013-08-31 16:23:00,91.9,61.1,29.45,SSW,202,4.2,-999.0,36,-99.99,,,0.00,Acu-Link.com,2013-08-31 23:23:00,
2013-08-31 16:38:00,92.1,61.3,29.45,SW,225,4.2,-999.0,36,-99.99,,,0.00,Acu-Link.com,2013-08-31 23:38:00,
2013-08-31 16:53:00,91.4,61.4,29.45,SSW,202,2.2,-999.0,37,-99.99,,,0.00,Acu-Link.com,2013-08-31 23:53:00,
2013-08-31 17:08:00,90.9,61.7,29.44,South,180,4.7,-999.0,38,-99.99,,,0.00,Acu-Link.com,2013-09-01 00:08:00,
2013-08-31 17:23:00,89.8,60.0,29.45,South,180,5.8,-999.0,37,-99.99,,,0.00,Acu-Link.com,2013-09-01 00:23:00,
2013-08-31 17:38:00,89.1,60.9,29.45,SSW,202,3.7,-999.0,39,-99.99,,,0.00,Acu-Link.com,2013-09-01 00:38:00,
2013-08-31 17:53:00,88.9,61.4,29.45,South,180,3.2,-999.0,40,-99.99,,,0.00,Acu-Link.com,2013-09-01 00:53:00,
2013-08-31 18:08:00,88.5,62.4,29.47,West,270,3.2,-999.0,42,-99.99,,,0.00,Acu-Link.com,2013-09-01 01:08:00,
2013-08-31 18:23:00,87.4,61.5,29.48,South,180,2.7,-999.0,42,-99.99,,,0.00,Acu-Link.com,2013-09-01 01:23:00,
2013-08-31 18:39:00,86.9,61.7,29.47,SSW,202,2.2,-999.0,43,-99.99,,,0.00,Acu-Link.com,2013-09-01 01:39:00,
2013-08-31 18:54:00,85.8,62.6,29.48,SSW,202,2.7,-999.0,46,-99.99,,,0.00,Acu-Link.com,2013-09-01 01:54:00,
2013-08-31 19:09:00,84.4,61.9,29.49,South,180,2.7,-999.0,47,-99.99,,,0.00,Acu-Link.com,2013-09-01 02:09:00,
2013-08-31 19:24:00,83.3,60.9,29.50,ENE,67,2.2,-999.0,47,-99.99,,,0.00,Acu-Link.com,2013-09-01 02:24:00,
2013-08-31 19:39:00,81.5,59.9,29.49,SSE,157,2.2,-999.0,48,-99.99,,,0.00,Acu-Link.com,2013-09-01 02:39:00,
2013-08-31 19:54:00,80.4,58.9,29.50,ENE,67,1.7,-999.0,48,-99.99,,,0.00,Acu-Link.com,2013-09-01 02:54:00,
2013-08-31 20:09:00,79.3,57.9,29.50,WNW,292,4.2,-999.0,48,-99.99,,,0.00,Acu-Link.com,2013-09-01 03:09:00,
2013-08-31 20:24:00,78.6,57.2,29.51,SSW,202,1.7,-999.0,48,-99.99,,,0.00,Acu-Link.com,2013-09-01 03:24:00,
2013-08-31 20:39:00,77.9,56.6,29.52,South,180,3.2,-999.0,48,-99.99,,,0.00,Acu-Link.com,2013-09-01 03:39:00,
2013-08-31 20:55:00,77.2,56.0,29.53,East,90,2.7,-999.0,48,-99.99,,,0.00,Acu-Link.com,2013-09-01 03:55:00,
2013-08-31 21:10:00,76.5,54.8,29.53,West,270,2.2,-999.0,47,-99.99,,,0.00,Acu-Link.com,2013-09-01 04:10:00,
2013-08-31 21:25:00,75.9,53.6,29.53,South,180,1.1,-999.0,46,-99.99,,,0.00,Acu-Link.com,2013-09-01 04:25:00,
2013-08-31 21:40:00,75.6,53.3,29.54,South,180,2.7,-999.0,46,-99.99,,,0.00,Acu-Link.com,2013-09-01 04:40:00,
2013-08-31 21:55:00,75.2,52.4,29.54,SE,135,2.2,-999.0,45,-99.99,,,0.00,Acu-Link.com,2013-09-01 04:55:00,
2013-08-31 22:10:00,74.7,51.9,29.54,SE,135,1.1,-999.0,45,-99.99,,,0.00,Acu-Link.com,2013-09-01 05:10:00,
2013-08-31 22:25:00,74.3,52.2,29.54,SSW,202,2.2,-999.0,46,-99.99,,,0.00,Acu-Link.com,2013-09-01 05:25:00,
2013-08-31 22:40:00,73.6,52.1,29.55,SSW,202,1.7,-999.0,47,-99.99,,,0.00,Acu-Link.com,2013-09-01 05:40:00,
2013-08-31 22:55:00,73.4,51.9,29.56,South,180,2.7,-999.0,47,-99.99,,,0.00,Acu-Link.com,2013-09-01 05:55:00,
2013-08-31 23:11:00,72.7,52.4,29.55,SSE,157,1.7,-999.0,49,-99.99,,,0.00,Acu-Link.com,2013-09-01 06:11:00,
2013-08-31 23:26:00,72.1,52.4,29.55,West,270,1.1,-999.0,50,-99.99,,,0.00,Acu-Link.com,2013-09-01 06:26:00,
2013-08-31 23:41:00,71.8,52.7,29.55,ENE,67,1.7,-999.0,51,-99.99,,,0.00,Acu-Link.com,2013-09-01 06:41:00,
2013-08-31 23:56:00,71.2,52.7,29.55,South,180,0.0,-999.0,52,-99.99,,,0.00,Acu-Link.com,2013-09-01 06:56:00,